This is the latest recevied weather packets stored in our database for station/object DL8BNG-13. If no packets are shown the sender has not sent any weather packets the latest 10 day(s).
| Time | Temp. | Humidity | Pressure | Rain* | Wind** | Luminosity | Snow |
|---|---|---|---|---|---|---|---|
| 1777234502 | 7.78° C | 55% | - | 0 mm | - | - | - |
| 1777233603 | 8.89° C | 52% | - | 0 mm | - | - | - |
| 1777232704 | 9.44° C | 50% | - | 0 mm | - | - | - |
| 1777231802 | 10° C | 51% | - | 0 mm | - | - | - |
| 1777230903 | 10° C | 51% | - | 0 mm | - | - | - |
| 1777230002 | 11.11° C | 47% | - | 0 mm | - | - | - |
| 1777229103 | 12.22° C | 43% | - | 0 mm | - | - | - |
| 1777228203 | 12.78° C | 41% | - | 0 mm | - | - | - |
| 1777227302 | 13.89° C | 38% | - | 0 mm | - | - | - |
| 1777226404 | 14.44° C | 36% | - | 0 mm | - | - | - |
| 1777225502 | 15° C | 36% | - | 0 mm | - | - | - |
| 1777224603 | 15° C | 35% | - | 0 mm | - | - | - |
| 1777223704 | 15.56° C | 34% | - | 0 mm | - | - | - |
| 1777222802 | 17.22° C | 32% | - | 0 mm | - | - | - |
| 1777221903 | 17.78° C | 29% | - | 0 mm | - | - | - |
| 1777221003 | 18.33° C | 27% | - | 0 mm | - | - | - |
| 1777220102 | 18.89° C | 26% | - | 0 mm | - | - | - |
| 1777219203 | 18.89° C | 26% | - | 0 mm | - | - | - |
| 1777218303 | 18.89° C | 28% | - | 0 mm | - | - | - |
| 1777217402 | 20° C | 28% | - | 0 mm | - | - | - |
| 1777216502 | 20.56° C | 27% | - | 0 mm | - | - | - |
| 1777215602 | 20° C | 28% | - | 0 mm | - | - | - |
| 1777214703 | 20° C | 27% | - | 0 mm | - | - | - |
| 1777213803 | 20° C | 29% | - | 0 mm | - | - | - |
| 1777212902 | 17.78° C | 30% | - | 0 mm | - | - | - |
* Rain since midnight (hover to see other rain measurements)
** Current wind speed in m/s (hover to see current wind gust speed)